| time (UTC) | temp F | wind direction | speed MPH | gust MPH | rain 1hr in | rain 24hr in | rain mn in | humidity % | barometer mb |
| 20260510173154 | 83 | 135 | 3.0 | 3.0 | 0.00 | 0.00 | 0.00 | 30 | 1009.0 |
| 20260510172654 | 83 | 135 | 1.0 | 2.0 | 0.00 | 0.00 | 0.00 | 30 | 1009.0 |
| 20260510172155 | 83 | 113 | 1.0 | 2.0 | 0.00 | 0.00 | 0.00 | 29 | 1009.0 |
| 20260510171657 | 83 | 135 | 0.0 | 1.0 | 0.00 | 0.00 | 0.00 | 32 | 1009.0 |
| 20260510171155 | 82 | 113 | 1.0 | 2.0 | 0.00 | 0.00 | 0.00 | 29 | 1009.0 |
| 20260510170656 | 81 | 135 | 2.0 | 2.0 | 0.00 | 0.00 | 0.00 | 31 | 1009.0 |
| 20260510170156 | 81 | 113 | 0.0 | 2.0 | 0.00 | 0.00 | 0.00 | 35 | 1009.0 |
| 20260510165656 | 80 | 113 | 1.0 | 1.0 | 0.00 | 0.00 | 0.00 | 33 | 1009.0 |
| 20260510165155 | 80 | 113 | 2.0 | 3.0 | 0.00 | 0.00 | 0.00 | 32 | 1009.0 |
| 20260510164654 | 81 | 113 | 2.0 | 2.0 | 0.00 | 0.00 | 0.00 | 34 | 1009.0 |
| 20260510164155 | 81 | 113 | 2.0 | 2.0 | 0.00 | 0.00 | 0.00 | 33 | 1009.0 |
| 20260510163657 | 81 | 135 | 0.0 | 1.0 | 0.00 | 0.00 | 0.00 | 36 | 1009.0 |
| 20260510163156 | 80 | 113 | 2.0 | 2.0 | 0.00 | 0.00 | 0.00 | 34 | 1009.0 |
| 20260510162656 | 80 | 135 | 1.0 | 2.0 | 0.00 | 0.00 | 0.00 | 33 | 1009.0 |
| 20260510162155 | 80 | 113 | 1.0 | 2.0 | 0.00 | 0.00 | 0.00 | 34 | 1009.0 |
| 20260510161655 | 81 | 113 | 3.0 | 4.0 | 0.00 | 0.00 | 0.00 | 34 | 1009.0 |
| 20260510161156 | 81 | 113 | 1.0 | 2.0 | 0.00 | 0.00 | 0.00 | 36 | 1009.0 |
| 20260510160657 | 81 | 135 | 0.0 | 2.0 | 0.00 | 0.00 | 0.00 | 39 | 1009.0 |
| 20260510160156 | 80 | 113 | 2.0 | 3.0 | 0.00 | 0.00 | 0.00 | 34 | 1009.0 |
| 20260510155655 | 80 | 113 | 1.0 | 2.0 | 0.00 | 0.00 | 0.00 | 34 | 1009.0 |
| 20260510155154 | 79 | 113 | 4.0 | 5.0 | 0.00 | 0.00 | 0.00 | 35 | 1009.0 |
| 20260510154654 | 80 | 113 | 1.0 | 1.0 | 0.00 | 0.00 | 0.00 | 42 | 1009.0 |
| 20260510154154 | 79 | 113 | 1.0 | 2.0 | 0.00 | 0.00 | 0.00 | 38 | 1010.0 |
| 20260510153656 | 79 | 113 | 3.0 | 3.0 | 0.00 | 0.00 | 0.00 | 38 | 1009.0 |
| 20260510153155 | 79 | 135 | 1.0 | 2.0 | 0.00 | 0.00 | 0.00 | 36 | 1009.0 |
| 20260510152657 | 79 | 113 | 2.0 | 2.0 | 0.00 | 0.00 | 0.00 | 39 | 1009.0 |
| 20260510152155 | 80 | 113 | 3.0 | 4.0 | 0.00 | 0.00 | 0.00 | 38 | 1009.0 |
| 20260510151655 | 79 | 135 | 0.0 | 1.0 | 0.00 | 0.00 | 0.00 | 41 | 1009.0 |
| 20260510151155 | 78 | 113 | 2.0 | 2.0 | 0.00 | 0.00 | 0.00 | 40 | 1009.0 |
| 20260510150654 | 78 | 113 | 2.0 | 3.0 | 0.00 | 0.00 | 0.00 | 41 | 1009.0 |
| 20260510150154 | 78 | 113 | 2.0 | 3.0 | 0.00 | 0.00 | 0.00 | 40 | 1010.0 |
| 20260510145657 | 78 | 113 | 1.0 | 1.0 | 0.00 | 0.00 | 0.00 | 43 | 1010.0 |
| 20260510145155 | 78 | 113 | 1.0 | 2.0 | 0.00 | 0.00 | 0.00 | 42 | 1010.0 |
| 20260510144654 | 79 | 113 | 2.0 | 3.0 | 0.00 | 0.00 | 0.00 | 41 | 1010.0 |
| 20260510144154 | 77 | 135 | 1.0 | 2.0 | 0.00 | 0.00 | 0.00 | 48 | 1010.0 |
| 20260510143655 | 76 | 113 | 2.0 | 2.0 | 0.00 | 0.00 | 0.00 | 45 | 1010.0 |
| 20260510143155 | 77 | 113 | 3.0 | 4.0 | 0.00 | 0.00 | 0.00 | 44 | 1009.0 |
| 20260510142655 | 77 | 113 | 0.0 | 1.0 | 0.00 | 0.00 | 0.00 | 50 | 1010.0 |
| 20260510142155 | 76 | 113 | 0.0 | 1.0 | 0.00 | 0.00 | 0.00 | 48 | 1010.0 |
| 20260510141655 | 75 | 113 | 2.0 | 2.0 | 0.00 | 0.00 | 0.00 | 48 | 1009.0 |
| 20260510141155 | 75 | 135 | 0.0 | 1.0 | 0.00 | 0.00 | 0.00 | 56 | 1009.0 |
| 20260510140654 | 74 | 113 | 1.0 | 2.0 | 0.00 | 0.00 | 0.00 | 56 | 1009.0 |
| 20260510140155 | 73 | 135 | 1.0 | 1.0 | 0.00 | 0.00 | 0.00 | 61 | 1009.0 |
| 20260510135654 | 72 | 135 | 0.0 | 0.0 | 0.00 | 0.00 | 0.00 | 65 | 1010.0 |
| 20260510135155 | 71 | 113 | 0.0 | 0.0 | 0.00 | 0.00 | 0.00 | 62 | 1009.0 |
| 20260510134655 | 70 | 135 | 0.0 | 0.0 | 0.00 | 0.00 | 0.00 | 69 | 1009.0 |
| 20260510134154 | 69 | 135 | 0.0 | 0.0 | 0.00 | 0.00 | 0.00 | 70 | 1009.0 |
| 20260510133657 | 68 | 135 | 0.0 | 0.0 | 0.00 | 0.00 | 0.00 | 75 | 1009.0 |
| 20260510133155 | 68 | 135 | 0.0 | 0.0 | 0.00 | 0.00 | 0.00 | 77 | 1010.0 |
| 20260510132655 | 67 | 135 | 0.0 | 0.0 | 0.00 | 0.00 | 0.00 | 80 | 1010.0 |
| 20260510132155 | 67 | 135 | 0.0 | 0.0 | 0.00 | 0.00 | 0.00 | 77 | 1009.0 |
| 20260510131655 | 66 | 135 | 0.0 | 0.0 | 0.00 | 0.00 | 0.00 | 79 | 1009.0 |
| 20260510131158 | 66 | 135 | 0.0 | 0.0 | 0.00 | 0.00 | 0.00 | 80 | 1010.0 |
| 20260510130656 | 66 | 135 | 0.0 | 0.0 | 0.00 | 0.00 | 0.00 | 83 | 1009.0 |
| 20260510130155 | 65 | 135 | 0.0 | 0.0 | 0.00 | 0.00 | 0.00 | 84 | 1009.0 |
| 20260510125655 | 65 | 135 | 0.0 | 0.0 | 0.00 | 0.00 | 0.00 | 84 | 1010.0 |
| 20260510125155 | 65 | 135 | 0.0 | 0.0 | 0.00 | 0.00 | 0.00 | 85 | 1009.0 |
| 20260510124655 | 65 | 135 | 0.0 | 0.0 | 0.00 | 0.00 | 0.00 | 84 | 1009.0 |
| 20260510124155 | 64 | 135 | 0.0 | 0.0 | 0.00 | 0.00 | 0.00 | 85 | 1009.0 |
| 20260510123654 | 64 | 135 | 0.0 | 0.0 | 0.00 | 0.00 | 0.00 | 86 | 1009.0 |
| 20260510123155 | 64 | 135 | 0.0 | 0.0 | 0.00 | 0.00 | 0.00 | 87 | 1009.0 |
| 20260510122657 | 63 | 135 | 0.0 | 0.0 | 0.00 | 0.00 | 0.00 | 89 | 1009.0 |
| 20260510122157 | 62 | 135 | 0.0 | 0.0 | 0.00 | 0.00 | 0.00 | 89 | 1009.0 |
| 20260510121655 | 62 | 135 | 0.0 | 0.0 | 0.00 | 0.00 | 0.00 | 90 | 1009.0 |
| 20260510121154 | 61 | 135 | 0.0 | 0.0 | 0.00 | 0.00 | 0.00 | 91 | 1009.0 |
| 20260510120656 | 61 | 135 | 0.0 | 0.0 | 0.00 | 0.00 | 0.00 | 91 | 1008.0 |
| 20260510120156 | 60 | 135 | 0.0 | 0.0 | 0.00 | 0.00 | 0.00 | 91 | 1008.0 |
| 20260510115654 | 59 | 135 | 0.0 | 0.0 | 0.00 | 0.00 | 0.00 | 91 | 1008.0 |
| 20260510115154 | 58 | 135 | 0.0 | 0.0 | 0.00 | 0.00 | 0.00 | 90 | 1008.0 |
| 20260510114654 | 58 | 135 | 0.0 | 0.0 | 0.00 | 0.00 | 0.00 | 91 | 1008.0 |
| 20260510114155 | 57 | 135 | 0.0 | 0.0 | 0.00 | 0.00 | 0.00 | 92 | 1008.0 |
| 20260510113656 | 57 | 135 | 0.0 | 0.0 | 0.00 | 0.00 | 0.00 | 93 | 1008.0 |
| 20260510113155 | 57 | 135 | 0.0 | 0.0 | 0.00 | 0.00 | 0.00 | 93 | 1008.0 |
| 20260510112656 | 56 | 135 | 0.0 | 0.0 | 0.00 | 0.00 | 0.00 | 93 | 1008.0 |
| 20260510112155 | 56 | 135 | 0.0 | 0.0 | 0.00 | 0.00 | 0.00 | 94 | 1008.0 |
| 20260510111656 | 56 | 135 | 0.0 | 0.0 | 0.00 | 0.00 | 0.00 | 94 | 1008.0 |
| 20260510111155 | 55 | 135 | 0.0 | 0.0 | 0.00 | 0.00 | 0.00 | 94 | 1008.0 |
| 20260510110656 | 55 | 135 | 0.0 | 0.0 | 0.00 | 0.00 | 0.00 | 94 | 1008.0 |
| 20260510110156 | 55 | 135 | 0.0 | 0.0 | 0.00 | 0.00 | 0.00 | 94 | 1007.0 |
| 20260510105654 | 55 | 135 | 0.0 | 0.0 | 0.00 | 0.00 | 0.00 | 94 | 1007.0 |
| 20260510105155 | 55 | 135 | 0.0 | 0.0 | 0.00 | 0.00 | 0.00 | 93 | 1007.0 |
| 20260510104655 | 55 | 135 | 0.0 | 0.0 | 0.00 | 0.00 | 0.00 | 93 | 1007.0 |
| 20260510104155 | 55 | 135 | 0.0 | 0.0 | 0.00 | 0.00 | 0.00 | 93 | 1007.0 |
| 20260510103654 | 55 | 135 | 0.0 | 0.0 | 0.00 | 0.00 | 0.00 | 93 | 1007.0 |
| 20260510103155 | 55 | 135 | 0.0 | 0.0 | 0.00 | 0.00 | 0.00 | 93 | 1007.0 |
| 20260510102656 | 55 | 135 | 0.0 | 0.0 | 0.00 | 0.00 | 0.00 | 93 | 1007.0 |
| 20260510102155 | 55 | 135 | 0.0 | 0.0 | 0.00 | 0.00 | 0.00 | 93 | 1007.0 |
| 20260510101655 | 55 | 135 | 0.0 | 0.0 | 0.00 | 0.00 | 0.00 | 93 | 1007.0 |
| 20260510101155 | 55 | 135 | 0.0 | 0.0 | 0.00 | 0.00 | 0.00 | 93 | 1007.0 |
| 20260510100655 | 55 | 135 | 0.0 | 0.0 | 0.00 | 0.00 | 0.00 | 93 | 1007.0 |
| 20260510100155 | 55 | 135 | 0.0 | 0.0 | 0.00 | 0.00 | 0.00 | 93 | 1007.0 |
| 20260510095655 | 55 | 135 | 0.0 | 0.0 | 0.00 | 0.00 | 0.00 | 93 | 1007.0 |
| 20260510095154 | 56 | 135 | 0.0 | 0.0 | 0.00 | 0.00 | 0.00 | 94 | 1007.0 |
| 20260510094656 | 56 | 135 | 0.0 | 0.0 | 0.00 | 0.00 | 0.00 | 94 | 1007.0 |
| 20260510094155 | 55 | 135 | 0.0 | 0.0 | 0.00 | 0.00 | 0.00 | 93 | 1007.0 |
| 20260510093654 | 55 | 135 | 0.0 | 0.0 | 0.00 | 0.00 | 0.00 | 93 | 1007.0 |
| 20260510093156 | 55 | 135 | 0.0 | 0.0 | 0.00 | 0.00 | 0.00 | 93 | 1007.0 |
| 20260510092655 | 55 | 135 | 0.0 | 0.0 | 0.00 | 0.00 | 0.00 | 93 | 1007.0 |
| 20260510092155 | 55 | 135 | 0.0 | 0.0 | 0.00 | 0.00 | 0.00 | 93 | 1006.0 |
| 20260510091655 | 56 | 135 | 0.0 | 0.0 | 0.00 | 0.00 | 0.00 | 93 | 1007.0 |
| 20260510091154 | 55 | 135 | 0.0 | 0.0 | 0.00 | 0.00 | 0.00 | 93 | 1007.0 |
| 20260510090654 | 56 | 135 | 0.0 | 0.0 | 0.00 | 0.00 | 0.00 | 93 | 1006.0 |
| 20260510090154 | 56 | 135 | 0.0 | 0.0 | 0.00 | 0.00 | 0.00 | 93 | 1006.0 |
| 20260510085654 | 56 | 135 | 0.0 | 0.0 | 0.00 | 0.00 | 0.00 | 93 | 1006.0 |
| 20260510085154 | 56 | 135 | 0.0 | 0.0 | 0.00 | 0.00 | 0.00 | 93 | 1006.0 |
| 20260510084655 | 56 | 135 | 0.0 | 0.0 | 0.00 | 0.00 | 0.00 | 93 | 1006.0 |
| 20260510084154 | 56 | 135 | 0.0 | 0.0 | 0.00 | 0.00 | 0.00 | 93 | 1006.0 |
| 20260510083655 | 56 | 135 | 0.0 | 0.0 | 0.00 | 0.00 | 0.00 | 93 | 1006.0 |
| 20260510083154 | 56 | 135 | 0.0 | 0.0 | 0.00 | 0.00 | 0.00 | 93 | 1006.0 |
| 20260510082654 | 57 | 135 | 0.0 | 0.0 | 0.00 | 0.00 | 0.00 | 93 | 1006.0 |
| 20260510082155 | 57 | 135 | 0.0 | 0.0 | 0.00 | 0.00 | 0.00 | 93 | 1006.0 |
| 20260510081655 | 57 | 135 | 0.0 | 0.0 | 0.00 | 0.00 | 0.00 | 93 | 1006.0 |
| 20260510081154 | 57 | 135 | 0.0 | 0.0 | 0.00 | 0.00 | 0.00 | 93 | 1006.0 |
| 20260510080655 | 57 | 135 | 0.0 | 0.0 | 0.00 | 0.00 | 0.00 | 93 | 1006.0 |
| 20260510080155 | 57 | 135 | 0.0 | 0.0 | 0.00 | 0.00 | 0.00 | 93 | 1006.0 |
| 20260510075654 | 57 | 135 | 0.0 | 0.0 | 0.00 | 0.00 | 0.00 | 93 | 1006.0 |
| 20260510075155 | 57 | 135 | 0.0 | 0.0 | 0.00 | 0.00 | 0.00 | 93 | 1006.0 |
| 20260510074654 | 57 | 135 | 0.0 | 0.0 | 0.00 | 0.00 | 0.00 | 93 | 1006.0 |
| 20260510074155 | 57 | 135 | 0.0 | 0.0 | 0.00 | 0.00 | 0.00 | 93 | 1006.0 |
| 20260510073655 | 57 | 135 | 0.0 | 0.0 | 0.00 | 0.00 | 0.00 | 93 | 1006.0 |
| 20260510073154 | 57 | 135 | 0.0 | 0.0 | 0.00 | 0.00 | 0.00 | 92 | 1006.0 |
| 20260510072654 | 57 | 135 | 0.0 | 0.0 | 0.00 | 0.00 | 0.00 | 92 | 1006.0 |
| 20260510072154 | 57 | 135 | 0.0 | 0.0 | 0.00 | 0.00 | 0.00 | 92 | 1006.0 |
| 20260510071654 | 57 | 135 | 0.0 | 0.0 | 0.00 | 0.00 | 0.00 | 92 | 1006.0 |
| 20260510071155 | 57 | 135 | 0.0 | 0.0 | 0.00 | 0.00 | 0.00 | 92 | 1006.0 |
| 20260510070657 | 57 | 135 | 0.0 | 0.0 | 0.00 | 0.00 | 0.00 | 92 | 1006.0 |
| 20260510070156 | 57 | 135 | 0.0 | 0.0 | 0.00 | 0.00 | 0.00 | 92 | 1006.0 |
| 20260510065655 | 57 | 135 | 0.0 | 0.0 | 0.00 | 0.00 | 0.00 | 92 | 1006.0 |
| 20260510065154 | 57 | 135 | 0.0 | 0.0 | 0.00 | 0.00 | 0.00 | 92 | 1006.0 |
| 20260510064655 | 57 | 135 | 0.0 | 0.0 | 0.00 | 0.00 | 0.00 | 92 | 1006.0 |
| 20260510064159 | 58 | 135 | 0.0 | 0.0 | 0.00 | 0.00 | 0.00 | 92 | 1006.0 |
| 20260510063655 | 58 | 135 | 0.0 | 0.0 | 0.00 | 0.00 | 0.00 | 92 | 1006.0 |
| 20260510063155 | 58 | 135 | 0.0 | 0.0 | 0.00 | 0.00 | 0.00 | 92 | 1006.0 |
| 20260510062654 | 58 | 135 | 0.0 | 0.0 | 0.00 | 0.00 | 0.00 | 92 | 1006.0 |
| 20260510062155 | 58 | 135 | 0.0 | 0.0 | 0.00 | 0.00 | 0.00 | 92 | 1006.0 |
| 20260510061654 | 58 | 135 | 0.0 | 0.0 | 0.00 | 0.00 | 0.00 | 92 | 1006.0 |
| 20260510061156 | 59 | 135 | 0.0 | 0.0 | 0.00 | 0.00 | 0.00 | 92 | 1006.0 |
| 20260510060655 | 59 | 135 | 0.0 | 0.0 | 0.00 | 0.00 | 0.00 | 92 | 1006.0 |
| 20260510060154 | 59 | 135 | 0.0 | 0.0 | 0.00 | 0.00 | 0.00 | 92 | 1006.0 |
| 20260510055654 | 59 | 135 | 0.0 | 0.0 | 0.00 | 0.00 | 0.00 | 92 | 1006.0 |
| 20260510055154 | 59 | 135 | 0.0 | 0.0 | 0.00 | 0.00 | 0.00 | 92 | 1006.0 |
| 20260510054655 | 59 | 135 | 0.0 | 0.0 | 0.00 | 0.00 | 0.00 | 92 | 1006.0 |
| 20260510054154 | 59 | 135 | 0.0 | 0.0 | 0.00 | 0.00 | 0.00 | 92 | 1006.0 |
| 20260510053655 | 60 | 135 | 0.0 | 0.0 | 0.00 | 0.00 | 0.00 | 92 | 1006.0 |
| 20260510053154 | 60 | 135 | 0.0 | 0.0 | 0.00 | 0.00 | 0.00 | 92 | 1006.0 |
| 20260510052654 | 60 | 135 | 0.0 | 0.0 | 0.00 | 0.00 | 0.00 | 92 | 1006.0 |
| 20260510052154 | 60 | 135 | 0.0 | 0.0 | 0.00 | 0.00 | 0.00 | 92 | 1006.0 |
| 20260510051655 | 60 | 135 | 0.0 | 0.0 | 0.00 | 0.00 | 0.00 | 92 | 1006.0 |
| 20260510051154 | 60 | 135 | 0.0 | 0.0 | 0.00 | 0.00 | 0.00 | 92 | 1006.0 |
| 20260510050655 | 60 | 135 | 0.0 | 0.0 | 0.00 | 0.00 | 0.00 | 92 | 1006.0 |
| 20260510050155 | 60 | 135 | 0.0 | 0.0 | 0.00 | 0.00 | 0.00 | 92 | 1006.0 |
| 20260510045654 | 60 | 135 | 0.0 | 0.0 | 0.00 | 0.00 | 0.00 | 92 | 1006.0 |
| 20260510045155 | 60 | 135 | 0.0 | 0.0 | 0.00 | 0.00 | 0.00 | 92 | 1006.0 |
| 20260510044655 | 60 | 135 | 0.0 | 0.0 | 0.00 | 0.00 | 0.00 | 92 | 1006.0 |
| 20260510044154 | 60 | 135 | 0.0 | 0.0 | 0.00 | 0.00 | 0.00 | 92 | 1006.0 |
| 20260510043654 | 60 | 135 | 0.0 | 0.0 | 0.00 | 0.00 | 0.00 | 92 | 1006.0 |
| 20260510043154 | 59 | 135 | 0.0 | 0.0 | 0.00 | 0.00 | 0.00 | 91 | 1006.0 |
| 20260510042654 | 60 | 135 | 0.0 | 0.0 | 0.00 | 0.00 | 0.00 | 91 | 1006.0 |
| 20260510042154 | 59 | 135 | 0.0 | 0.0 | 0.00 | 0.00 | 0.00 | 91 | 1006.0 |
| 20260510041655 | 59 | 135 | 0.0 | 0.0 | 0.00 | 0.00 | 0.00 | 91 | 1006.0 |
| 20260510041155 | 60 | 135 | 0.0 | 0.0 | 0.00 | 0.00 | 0.00 | 91 | 1006.0 |
| 20260510040659 | 60 | 135 | 0.0 | 0.0 | 0.00 | 0.00 | 0.00 | 91 | 1006.0 |
| 20260510040155 | 59 | 135 | 0.0 | 0.0 | 0.00 | 0.00 | 0.00 | 91 | 1006.0 |
| 20260510035654 | 59 | 135 | 0.0 | 0.0 | 0.00 | 0.00 | 0.00 | 91 | 1006.0 |
| 20260510035154 | 59 | 135 | 0.0 | 0.0 | 0.00 | 0.00 | 0.00 | 91 | 1006.0 |
| 20260510034655 | 60 | 135 | 0.0 | 0.0 | 0.00 | 0.00 | 0.00 | 91 | 1006.0 |
| 20260510034155 | 60 | 135 | 0.0 | 0.0 | 0.00 | 0.00 | 0.00 | 91 | 1006.0 |
| 20260510033656 | 60 | 135 | 0.0 | 0.0 | 0.00 | 0.00 | 0.00 | 91 | 1006.0 |
| 20260510033154 | 60 | 135 | 0.0 | 0.0 | 0.00 | 0.00 | 0.00 | 90 | 1006.0 |
| 20260510032655 | 60 | 135 | 0.0 | 0.0 | 0.00 | 0.00 | 0.00 | 90 | 1006.0 |
| 20260510032154 | 60 | 135 | 0.0 | 0.0 | 0.00 | 0.00 | 0.00 | 90 | 1006.0 |
| 20260510031656 | 60 | 135 | 0.0 | 0.0 | 0.00 | 0.00 | 0.00 | 90 | 1006.0 |
| 20260510031155 | 60 | 135 | 0.0 | 0.0 | 0.00 | 0.00 | 0.00 | 90 | 1006.0 |
| 20260510030656 | 60 | 135 | 0.0 | 0.0 | 0.00 | 0.00 | 0.00 | 91 | 1006.0 |
| 20260510030155 | 60 | 135 | 0.0 | 0.0 | 0.00 | 0.00 | 0.00 | 90 | 1006.0 |
| 20260510025656 | 60 | 135 | 0.0 | 0.0 | 0.00 | 0.00 | 0.00 | 90 | 1006.0 |
| 20260510025154 | 60 | 135 | 0.0 | 0.0 | 0.00 | 0.00 | 0.00 | 90 | 1006.0 |
| 20260510024655 | 60 | 135 | 0.0 | 0.0 | 0.00 | 0.00 | 0.00 | 89 | 1006.0 |
| 20260510024154 | 60 | 135 | 0.0 | 0.0 | 0.00 | 0.00 | 0.00 | 89 | 1006.0 |
| 20260510023655 | 61 | 135 | 0.0 | 0.0 | 0.00 | 0.00 | 0.00 | 89 | 1006.0 |
| 20260510023157 | 61 | 135 | 0.0 | 0.0 | 0.00 | 0.00 | 0.00 | 89 | 1006.0 |
| 20260510022655 | 61 | 135 | 0.0 | 0.0 | 0.00 | 0.00 | 0.00 | 88 | 1006.0 |
| 20260510022156 | 61 | 135 | 0.0 | 0.0 | 0.00 | 0.00 | 0.00 | 88 | 1006.0 |
| 20260510021655 | 61 | 135 | 0.0 | 0.0 | 0.00 | 0.00 | 0.00 | 88 | 1006.0 |
| 20260510021155 | 62 | 135 | 0.0 | 0.0 | 0.00 | 0.00 | 0.00 | 88 | 1006.0 |
| 20260510020655 | 62 | 135 | 0.0 | 0.0 | 0.00 | 0.00 | 0.00 | 88 | 1006.0 |
| 20260510020154 | 62 | 135 | 0.0 | 0.0 | 0.00 | 0.00 | 0.00 | 87 | 1006.0 |
| 20260510015656 | 62 | 135 | 0.0 | 0.0 | 0.00 | 0.00 | 0.00 | 87 | 1006.0 |
| 20260510015155 | 62 | 135 | 0.0 | 0.0 | 0.00 | 0.00 | 0.00 | 87 | 1006.0 |
| 20260510014654 | 62 | 135 | 0.0 | 0.0 | 0.00 | 0.00 | 0.00 | 87 | 1005.0 |
| 20260510014154 | 63 | 135 | 0.0 | 0.0 | 0.00 | 0.00 | 0.00 | 86 | 1006.0 |
| 20260510013654 | 63 | 135 | 0.0 | 0.0 | 0.00 | 0.00 | 0.00 | 86 | 1005.0 |
| 20260510013154 | 63 | 135 | 0.0 | 0.0 | 0.00 | 0.00 | 0.00 | 85 | 1005.0 |
| 20260510012654 | 63 | 135 | 0.0 | 0.0 | 0.00 | 0.00 | 0.00 | 85 | 1005.0 |
| 20260510012154 | 63 | 135 | 0.0 | 0.0 | 0.00 | 0.00 | 0.00 | 84 | 1005.0 |
| 20260510011654 | 64 | 135 | 0.0 | 0.0 | 0.00 | 0.00 | 0.00 | 84 | 1005.0 |
| 20260510011155 | 64 | 135 | 0.0 | 0.0 | 0.00 | 0.00 | 0.00 | 84 | 1005.0 |
| 20260510010654 | 64 | 135 | 0.0 | 0.0 | 0.00 | 0.00 | 0.00 | 83 | 1005.0 |
| 20260510010156 | 64 | 135 | 0.0 | 0.0 | 0.00 | 0.00 | 0.00 | 83 | 1005.0 |
| 20260510005655 | 64 | 135 | 0.0 | 0.0 | 0.00 | 0.00 | 0.00 | 83 | 1005.0 |
| 20260510005155 | 65 | 135 | 0.0 | 0.0 | 0.00 | 0.00 | 0.00 | 82 | 1005.0 |
| 20260510004655 | 65 | 135 | 0.0 | 0.0 | 0.00 | 0.00 | 0.00 | 83 | 1004.0 |
| 20260510004155 | 65 | 135 | 0.0 | 0.0 | 0.00 | 0.00 | 0.00 | 82 | 1004.0 |
| 20260510003654 | 65 | 135 | 1.0 | 1.0 | 0.00 | 0.00 | 0.00 | 82 | 1004.0 |
| 20260510003154 | 66 | 135 | 0.0 | 0.0 | 0.00 | 0.00 | 0.00 | 81 | 1004.0 |
| 20260510002654 | 66 | 135 | 0.0 | 0.0 | 0.00 | 0.00 | 0.00 | 80 | 1004.0 |
| 20260510002155 | 67 | 135 | 0.0 | 0.0 | 0.00 | 0.00 | 0.00 | 79 | 1004.0 |
| 20260510001654 | 67 | 135 | 0.0 | 0.0 | 0.00 | 0.00 | 0.00 | 78 | 1004.0 |
| 20260510001154 | 68 | 135 | 0.0 | 0.0 | 0.00 | 0.00 | 0.00 | 77 | 1004.0 |
| 20260510000654 | 68 | 135 | 0.0 | 0.0 | 0.00 | 0.00 | 0.00 | 77 | 1004.0 |
| 20260510000154 | 68 | 135 | 0.0 | 0.0 | 0.00 | 0.00 | 0.00 | 75 | 1004.0 |
| 20260509235654 | 69 | 135 | 0.0 | 0.0 | 0.00 | 0.00 | 0.00 | 74 | 1004.0 |
| 20260509235155 | 69 | 135 | 0.0 | 0.0 | 0.00 | 0.00 | 0.00 | 74 | 1004.0 |
| 20260509234655 | 69 | 135 | 0.0 | 1.0 | 0.00 | 0.00 | 0.00 | 74 | 1004.0 |
| 20260509234154 | 69 | 135 | 0.0 | 0.0 | 0.00 | 0.00 | 0.00 | 74 | 1004.0 |
| 20260509233655 | 69 | 135 | 0.0 | 0.0 | 0.00 | 0.00 | 0.00 | 74 | 1004.0 |
| 20260509233155 | 69 | 135 | 0.0 | 0.0 | 0.00 | 0.00 | 0.00 | 73 | 1004.0 |
| 20260509232654 | 70 | 135 | 0.0 | 0.0 | 0.00 | 0.00 | 0.00 | 73 | 1004.0 |
| 20260509232156 | 70 | 135 | 0.0 | 1.0 | 0.00 | 0.00 | 0.00 | 72 | 1004.0 |
| 20260509231655 | 70 | 135 | 0.0 | 1.0 | 0.00 | 0.00 | 0.00 | 72 | 1004.0 |
| 20260509231155 | 70 | 135 | 1.0 | 1.0 | 0.00 | 0.00 | 0.00 | 72 | 1004.0 |
| 20260509230655 | 70 | 135 | 0.0 | 0.0 | 0.00 | 0.00 | 0.00 | 71 | 1004.0 |
| 20260509230155 | 70 | 135 | 1.0 | 2.0 | 0.00 | 0.00 | 0.00 | 70 | 1003.0 |
| 20260509225656 | 71 | 135 | 3.0 | 4.0 | 0.00 | 0.00 | 0.00 | 69 | 1004.0 |
| 20260509225154 | 71 | 135 | 1.0 | 2.0 | 0.00 | 0.00 | 0.00 | 69 | 1004.0 |
| 20260509224655 | 71 | 135 | 0.0 | 1.0 | 0.00 | 0.00 | 0.00 | 69 | 1003.0 |
| 20260509224155 | 71 | 135 | 0.0 | 1.0 | 0.00 | 0.00 | 0.00 | 68 | 1004.0 |
| 20260509223655 | 71 | 135 | 0.0 | 0.0 | 0.00 | 0.00 | 0.00 | 69 | 1003.0 |
| 20260509223155 | 71 | 135 | 0.0 | 1.0 | 0.00 | 0.00 | 0.00 | 68 | 1003.0 |
| 20260509222655 | 71 | 135 | 0.0 | 0.0 | 0.00 | 0.00 | 0.00 | 68 | 1003.0 |
| 20260509222156 | 71 | 135 | 2.0 | 2.0 | 0.00 | 0.00 | 0.00 | 68 | 1003.0 |
| 20260509221655 | 72 | 135 | 2.0 | 2.0 | 0.00 | 0.00 | 0.00 | 67 | 1003.0 |
| 20260509221154 | 72 | 135 | 2.0 | 2.0 | 0.00 | 0.00 | 0.00 | 67 | 1004.0 |
| 20260509220655 | 72 | 135 | 2.0 | 2.0 | 0.00 | 0.00 | 0.00 | 66 | 1004.0 |
| 20260509220156 | 72 | 135 | 1.0 | 2.0 | 0.00 | 0.00 | 0.00 | 66 | 1004.0 |
| 20260509215655 | 72 | 135 | 1.0 | 2.0 | 0.00 | 0.00 | 0.00 | 66 | 1003.0 |
| 20260509215155 | 72 | 135 | 2.0 | 2.0 | 0.00 | 0.00 | 0.00 | 65 | 1003.0 |
| 20260509214656 | 72 | 135 | 0.0 | 1.0 | 0.00 | 0.00 | 0.00 | 66 | 1003.0 |
| 20260509214155 | 72 | 135 | 2.0 | 3.0 | 0.00 | 0.00 | 0.00 | 66 | 1003.0 |
| 20260509213654 | 72 | 135 | 2.0 | 3.0 | 0.00 | 0.00 | 0.00 | 67 | 1003.0 |
| 20260509213155 | 72 | 135 | 1.0 | 2.0 | 0.00 | 0.00 | 0.00 | 67 | 1003.0 |
| 20260509212657 | 72 | 135 | 1.0 | 2.0 | 0.00 | 0.00 | 0.00 | 68 | 1003.0 |
| 20260509212154 | 72 | 135 | 1.0 | 2.0 | 0.00 | 0.00 | 0.00 | 67 | 1004.0 |
| 20260509211654 | 72 | 135 | 2.0 | 3.0 | 0.00 | 0.00 | 0.00 | 67 | 1003.0 |
| 20260509211154 | 72 | 135 | 1.0 | 2.0 | 0.00 | 0.00 | 0.00 | 67 | 1003.0 |
| 20260509210656 | 72 | 135 | 2.0 | 2.0 | 0.00 | 0.00 | 0.00 | 67 | 1003.0 |
| 20260509210156 | 72 | 135 | 2.0 | 3.0 | 0.00 | 0.00 | 0.00 | 67 | 1003.0 |
| 20260509205654 | 72 | 135 | 1.0 | 2.0 | 0.00 | 0.00 | 0.00 | 67 | 1003.0 |
| 20260509205156 | 71 | 135 | 3.0 | 3.0 | 0.00 | 0.00 | 0.00 | 67 | 1003.0 |
| 20260509204657 | 71 | 135 | 1.0 | 2.0 | 0.00 | 0.00 | 0.00 | 66 | 1003.0 |
| 20260509204156 | 71 | 135 | 2.0 | 2.0 | 0.00 | 0.00 | 0.00 | 67 | 1004.0 |
| 20260509203656 | 72 | 135 | 0.0 | 1.0 | 0.00 | 0.00 | 0.00 | 66 | 1004.0 |
| 20260509203155 | 71 | 135 | 0.0 | 0.0 | 0.00 | 0.00 | 0.00 | 69 | 1003.0 |
| 20260509202654 | 71 | 135 | 3.0 | 3.0 | 0.00 | 0.00 | 0.00 | 66 | 1003.0 |
| 20260509202154 | 72 | 135 | 2.0 | 3.0 | 0.00 | 0.00 | 0.00 | 66 | 1003.0 |
| 20260509201654 | 72 | 135 | 1.0 | 1.0 | 0.00 | 0.00 | 0.00 | 67 | 1003.0 |
| 20260509201156 | 71 | 135 | 2.0 | 2.0 | 0.00 | 0.00 | 0.00 | 68 | 1003.0 |
| 20260509200655 | 71 | 135 | 1.0 | 2.0 | 0.00 | 0.00 | 0.00 | 67 | 1003.0 |
| 20260509200154 | 71 | 135 | 2.0 | 2.0 | 0.00 | 0.00 | 0.00 | 69 | 1004.0 |
| 20260509195654 | 71 | 135 | 3.0 | 4.0 | 0.00 | 0.00 | 0.00 | 66 | 1004.0 |
| 20260509195155 | 71 | 135 | 2.0 | 4.0 | 0.00 | 0.00 | 0.00 | 67 | 1004.0 |
| 20260509194655 | 71 | 135 | 1.0 | 2.0 | 0.00 | 0.00 | 0.00 | 67 | 1004.0 |
| 20260509194155 | 70 | 135 | 0.0 | 1.0 | 0.00 | 0.00 | 0.00 | 70 | 1004.0 |
| 20260509193654 | 70 | 135 | 1.0 | 2.0 | 0.00 | 0.00 | 0.00 | 69 | 1004.0 |
| 20260509193155 | 70 | 135 | 2.0 | 3.0 | 0.00 | 0.00 | 0.00 | 70 | 1004.0 |
| 20260509192655 | 70 | 135 | 2.0 | 2.0 | 0.00 | 0.00 | 0.00 | 68 | 1004.0 |
| 20260509192154 | 70 | 135 | 4.0 | 5.0 | 0.00 | 0.00 | 0.00 | 68 | 1004.0 |
| 20260509191655 | 70 | 135 | 3.0 | 4.0 | 0.00 | 0.00 | 0.00 | 69 | 1004.0 |
| 20260509191156 | 70 | 135 | 1.0 | 2.0 | 0.00 | 0.00 | 0.00 | 68 | 1004.0 |
| 20260509190654 | 69 | 135 | 1.0 | 2.0 | 0.00 | 0.00 | 0.00 | 68 | 1004.0 |
| 20260509190155 | 69 | 135 | 2.0 | 2.0 | 0.00 | 0.00 | 0.00 | 68 | 1004.0 |
| 20260509185655 | 69 | 135 | 2.0 | 2.0 | 0.00 | 0.00 | 0.00 | 68 | 1004.0 |
| 20260509185154 | 69 | 135 | 2.0 | 2.0 | 0.00 | 0.00 | 0.00 | 68 | 1004.0 |
| 20260509184655 | 69 | 135 | 0.0 | 2.0 | 0.00 | 0.00 | 0.00 | 70 | 1004.0 |
| 20260509184155 | 69 | 135 | 1.0 | 2.0 | 0.00 | 0.00 | 0.00 | 71 | 1004.0 |
| 20260509183654 | 69 | 135 | 2.0 | 2.0 | 0.00 | 0.00 | 0.00 | 70 | 1004.0 |
| 20260509183155 | 69 | 135 | 1.0 | 3.0 | 0.00 | 0.00 | 0.00 | 70 | 1004.0 |
| 20260509182655 | 69 | 135 | 1.0 | 2.0 | 0.00 | 0.00 | 0.00 | 70 | 1005.0 |
| 20260509182156 | 69 | 135 | 0.0 | 1.0 | 0.00 | 0.00 | 0.00 | 69 | 1004.0 |
| 20260509181654 | 69 | 135 | 2.0 | 2.0 | 0.00 | 0.00 | 0.00 | 68 | 1005.0 |
| 20260509181156 | 69 | 135 | 2.0 | 2.0 | 0.00 | 0.00 | 0.00 | 68 | 1004.0 |
| 20260509180655 | 70 | 135 | 2.0 | 3.0 | 0.00 | 0.00 | 0.00 | 66 | 1004.0 |
| 20260509180156 | 70 | 135 | 2.0 | 2.0 | 0.00 | 0.00 | 0.00 | 66 | 1005.0 |
| 20260509175654 | 70 | 135 | 2.0 | 2.0 | 0.00 | 0.00 | 0.00 | 67 | 1004.0 |
| 20260509175155 | 70 | 135 | 2.0 | 3.0 | 0.00 | 0.00 | 0.00 | 68 | 1004.0 |
| 20260509174655 | 70 | 135 | 3.0 | 3.0 | 0.00 | 0.00 | 0.00 | 66 | 1005.0 |
| 20260509174155 | 71 | 135 | 0.0 | 1.0 | 0.00 | 0.00 | 0.00 | 67 | 1004.0 |
| 20260509173654 | 71 | 135 | 1.0 | 2.0 | 0.00 | 0.00 | 0.00 | 65 | 1005.0 |